createdAt,value
2022-10-02T00:01:19.723Z,0.60
2022-10-02T00:03:47.952Z,0.82
2022-10-02T00:06:15.706Z,0.80
2022-10-02T00:08:43.392Z,0.90
2022-10-02T00:11:11.112Z,0.80
2022-10-02T00:13:38.814Z,0.85
2022-10-02T00:16:06.881Z,0.75
2022-10-02T00:18:34.960Z,0.80
2022-10-02T00:21:02.708Z,0.80
2022-10-02T00:23:30.445Z,1.00
2022-10-02T00:25:58.151Z,0.93
2022-10-02T00:28:25.927Z,0.80
2022-10-02T00:30:53.680Z,1.00
2022-10-02T00:33:21.400Z,0.82
2022-10-02T00:35:49.823Z,0.90
2022-10-02T00:38:17.465Z,0.88
2022-10-02T00:40:45.516Z,0.88
2022-10-02T00:43:13.276Z,1.00
2022-10-02T00:45:41.049Z,0.82
2022-10-02T00:48:09.081Z,0.93
2022-10-02T00:50:36.773Z,0.90
2022-10-02T00:53:04.486Z,0.80
2022-10-02T00:55:32.173Z,1.00
2022-10-02T00:58:00.114Z,0.80
2022-10-02T01:00:27.804Z,0.98
2022-10-02T01:02:55.734Z,1.00
2022-10-02T01:05:23.817Z,0.95
2022-10-02T01:07:51.675Z,0.80
2022-10-02T01:10:19.403Z,0.80
2022-10-02T01:12:47.107Z,0.70
2022-10-02T01:15:14.809Z,0.85
2022-10-02T01:17:42.711Z,0.90
2022-10-02T01:20:10.676Z,0.82
2022-10-02T01:22:38.411Z,0.90
2022-10-02T01:25:06.117Z,0.80
2022-10-02T01:27:38.749Z,0.80
2022-10-02T01:30:07.629Z,0.93
2022-10-02T01:32:35.468Z,0.77
2022-10-02T01:35:03.402Z,0.80
2022-10-02T01:37:31.104Z,0.73
2022-10-02T01:39:58.965Z,0.90
2022-10-02T01:42:26.664Z,0.90
2022-10-02T01:44:54.498Z,0.90
2022-10-02T01:47:22.248Z,0.82
2022-10-02T01:49:49.986Z,0.90
2022-10-02T01:52:17.804Z,0.75
2022-10-02T01:54:45.604Z,0.80
2022-10-02T01:57:13.271Z,0.93
2022-10-02T01:59:41.045Z,1.00
2022-10-02T02:02:08.790Z,0.70
2022-10-02T02:04:36.672Z,0.80
2022-10-02T02:07:04.586Z,0.85
2022-10-02T02:09:32.254Z,0.70
2022-10-02T02:11:59.923Z,0.90
2022-10-02T02:14:27.585Z,0.80
2022-10-02T02:16:55.481Z,0.73
2022-10-02T02:19:23.354Z,0.80
2022-10-02T02:21:51.048Z,0.70
2022-10-02T02:24:18.744Z,0.80
2022-10-02T02:26:47.122Z,0.90
2022-10-02T02:29:14.805Z,0.70
2022-10-02T02:31:42.487Z,0.90
2022-10-02T02:34:10.277Z,0.80
2022-10-02T02:36:38.394Z,0.80
2022-10-02T02:39:06.451Z,1.00
2022-10-02T02:41:34.218Z,0.90
2022-10-02T02:44:01.980Z,0.73
2022-10-02T02:46:29.757Z,0.80
2022-10-02T02:48:57.437Z,0.80
2022-10-02T02:51:25.129Z,0.80
2022-10-02T02:53:52.889Z,0.90
2022-10-02T02:56:20.594Z,0.60
2022-10-02T02:58:48.531Z,0.75
2022-10-02T03:01:16.281Z,0.70
2022-10-02T03:03:43.975Z,0.80
2022-10-02T03:06:11.950Z,0.90
2022-10-02T03:08:39.636Z,0.70
2022-10-02T03:11:07.379Z,0.90
2022-10-02T03:13:35.145Z,0.70
2022-10-02T03:16:02.839Z,0.95
2022-10-02T03:18:30.562Z,0.80
2022-10-02T03:20:58.333Z,0.70
2022-10-02T03:23:26.057Z,0.70
2022-10-02T03:25:54.000Z,0.75
2022-10-02T03:28:43.547Z,0.90
2022-10-02T03:31:09.434Z,0.60
2022-10-02T03:33:37.375Z,0.85
2022-10-02T03:36:05.170Z,0.70
2022-10-02T03:38:32.975Z,0.80
2022-10-02T03:41:00.717Z,0.73
2022-10-02T03:43:28.383Z,0.80
2022-10-02T03:45:56.173Z,0.80
2022-10-02T03:48:24.372Z,0.70
2022-10-02T03:50:52.112Z,0.90
2022-10-02T03:53:19.960Z,0.80
2022-10-02T03:55:47.664Z,0.90
2022-10-02T03:58:15.671Z,0.80
2022-10-02T04:00:43.531Z,0.90
2022-10-02T04:03:11.293Z,0.82
2022-10-02T04:05:39.202Z,0.60
2022-10-02T04:08:07.065Z,0.60
2022-10-02T04:10:37.874Z,0.73
2022-10-02T04:13:05.797Z,0.70
2022-10-02T04:15:33.497Z,0.80
2022-10-02T04:18:02.179Z,0.82
2022-10-02T04:20:31.673Z,0.70
2022-10-02T04:22:59.550Z,0.85
2022-10-02T04:25:27.246Z,0.90
2022-10-02T04:27:54.983Z,0.80
2022-10-02T04:30:22.732Z,0.70
2022-10-02T04:32:50.521Z,0.70
2022-10-02T04:35:18.309Z,0.70
2022-10-02T04:37:45.977Z,0.90
2022-10-02T04:40:13.671Z,0.80
2022-10-02T04:42:41.370Z,0.85
2022-10-02T04:45:09.088Z,0.60
2022-10-02T04:47:36.751Z,0.80
2022-10-02T04:50:04.488Z,0.75
2022-10-02T04:52:32.188Z,0.60
2022-10-02T04:54:59.963Z,0.60
2022-10-02T04:57:27.839Z,0.55
2022-10-02T04:59:55.736Z,0.60
2022-10-02T05:02:23.455Z,0.60
2022-10-02T05:04:51.724Z,0.50
2022-10-02T05:07:19.634Z,0.40
2022-10-02T05:09:47.313Z,0.50
2022-10-02T05:12:15.008Z,0.47
2022-10-02T05:14:42.705Z,0.30
2022-10-02T05:17:10.444Z,0.50
2022-10-02T05:19:38.282Z,0.40
2022-10-02T05:22:06.039Z,0.40
2022-10-02T05:24:34.922Z,0.50
2022-10-02T05:27:02.779Z,0.40
2022-10-02T05:29:30.452Z,0.45
2022-10-02T05:31:58.410Z,0.40
2022-10-02T05:34:26.331Z,0.30
2022-10-02T05:36:54.020Z,0.50
2022-10-02T05:39:22.200Z,0.40
2022-10-02T05:41:50.046Z,0.40
2022-10-02T05:44:17.788Z,0.57
2022-10-02T05:46:45.883Z,0.47
2022-10-02T05:49:13.589Z,0.60
2022-10-02T05:51:41.378Z,0.43
2022-10-02T05:54:09.094Z,0.40
2022-10-02T05:56:36.980Z,0.50
2022-10-02T05:59:05.632Z,0.47
2022-10-02T06:01:33.362Z,0.60
2022-10-02T06:04:01.331Z,0.50
2022-10-02T06:06:29.015Z,0.52
2022-10-02T06:08:58.494Z,0.57
2022-10-02T06:11:26.678Z,0.50
2022-10-02T06:13:54.543Z,0.50
2022-10-02T06:16:22.302Z,0.50
2022-10-02T06:18:50.304Z,0.50
2022-10-02T06:21:17.967Z,0.60
2022-10-02T06:23:45.750Z,0.60
2022-10-02T06:26:13.433Z,0.63
2022-10-02T06:28:41.193Z,0.50
2022-10-02T06:31:09.049Z,0.40
2022-10-02T06:33:36.792Z,0.80
2022-10-02T06:36:04.684Z,0.70
2022-10-02T06:38:32.389Z,0.43
2022-10-02T06:41:00.096Z,0.57
2022-10-02T06:43:27.842Z,0.68
2022-10-02T06:45:58.543Z,0.50
2022-10-02T06:48:26.752Z,0.70
2022-10-02T06:50:54.563Z,0.50
2022-10-02T06:53:23.028Z,0.50
2022-10-02T06:55:50.728Z,0.43
2022-10-02T06:58:18.595Z,0.45
2022-10-02T07:00:47.104Z,0.40
2022-10-02T07:03:17.445Z,0.60
2022-10-02T07:05:45.176Z,0.30
2022-10-02T07:08:13.086Z,0.30
2022-10-02T07:10:43.124Z,0.45
2022-10-02T07:13:12.062Z,0.40
2022-10-02T07:15:39.779Z,0.43
2022-10-02T07:18:07.455Z,0.40
2022-10-02T07:20:35.416Z,0.47
2022-10-02T07:23:07.533Z,0.68
2022-10-02T07:25:35.568Z,0.40
2022-10-02T07:28:03.315Z,0.50
2022-10-02T07:30:31.051Z,0.30
2022-10-02T07:32:59.348Z,0.40
2022-10-02T07:35:27.301Z,0.45
2022-10-02T07:37:54.990Z,0.40
2022-10-02T07:40:23.105Z,0.40
2022-10-02T07:42:50.927Z,0.60
2022-10-02T07:45:18.671Z,0.40
2022-10-02T07:47:46.669Z,0.65
2022-10-02T07:50:14.507Z,0.60
2022-10-02T07:52:42.658Z,0.50
2022-10-02T07:55:10.375Z,0.50
2022-10-02T07:57:38.086Z,0.50
2022-10-02T08:00:06.628Z,0.60
2022-10-02T08:02:34.576Z,0.60
2022-10-02T08:05:02.552Z,0.60
2022-10-02T08:07:30.227Z,0.60
2022-10-02T08:09:58.089Z,0.52
2022-10-02T08:12:28.206Z,0.50
2022-10-02T08:14:56.243Z,0.60
2022-10-02T08:17:24.004Z,0.68
2022-10-02T08:19:51.821Z,0.50
2022-10-02T08:22:20.468Z,0.57
2022-10-02T08:24:49.195Z,0.40
2022-10-02T08:27:17.089Z,0.70
2022-10-02T08:29:44.772Z,0.50
2022-10-02T08:32:12.872Z,0.70
2022-10-02T08:34:40.859Z,0.57
2022-10-02T08:37:08.663Z,0.60
2022-10-02T08:39:36.780Z,0.47
2022-10-02T08:42:05.544Z,0.60
2022-10-02T08:44:36.281Z,0.60
2022-10-02T08:47:04.697Z,0.65
2022-10-02T08:49:32.377Z,0.60
2022-10-02T08:52:00.343Z,0.63
2022-10-02T08:54:28.004Z,0.70
2022-10-02T08:56:56.040Z,0.70
2022-10-02T08:59:26.080Z,0.60
2022-10-02T09:01:59.712Z,0.50
2022-10-02T09:04:28.904Z,0.80
2022-10-02T09:06:56.734Z,0.90
2022-10-02T09:09:24.532Z,0.90
2022-10-02T09:11:52.288Z,0.90
2022-10-02T09:14:20.018Z,0.80
2022-10-02T09:16:48.168Z,0.90
2022-10-02T09:19:19.263Z,0.98
2022-10-02T09:21:47.060Z,0.90
2022-10-02T09:24:14.800Z,1.00
2022-10-02T09:26:42.702Z,1.08
2022-10-02T09:29:10.410Z,0.80
2022-10-02T09:31:40.270Z,0.90
2022-10-02T09:34:08.089Z,0.90
2022-10-02T09:36:36.195Z,1.20
2022-10-02T09:39:04.111Z,1.30
2022-10-02T09:41:32.037Z,1.55
2022-10-02T09:44:01.516Z,1.40
2022-10-02T09:46:30.530Z,1.60
2022-10-02T09:48:59.339Z,1.42
2022-10-02T09:51:27.318Z,1.65
2022-10-02T09:53:55.019Z,1.60
2022-10-02T09:56:22.850Z,1.50
2022-10-02T09:58:50.570Z,1.55
2022-10-02T10:01:18.309Z,1.83
2022-10-02T10:03:46.062Z,1.60
2022-10-02T10:06:14.074Z,1.30
2022-10-02T10:08:41.765Z,1.40
2022-10-02T10:11:10.716Z,1.30
2022-10-02T10:13:38.399Z,1.85
2022-10-02T10:16:06.906Z,1.30
2022-10-02T10:18:36.439Z,1.65
2022-10-02T10:21:04.118Z,1.50
2022-10-02T10:23:36.412Z,1.40
2022-10-02T10:26:04.548Z,1.30
2022-10-02T10:28:33.998Z,1.50
2022-10-02T10:31:02.234Z,1.33
2022-10-02T10:33:30.416Z,1.25
2022-10-02T10:35:58.987Z,1.40
2022-10-02T10:38:34.788Z,1.60
2022-10-02T10:41:02.506Z,1.52
2022-10-02T10:43:32.154Z,1.65
2022-10-02T10:46:00.271Z,1.40
2022-10-02T10:48:28.692Z,1.50
2022-10-02T10:50:56.644Z,1.60
2022-10-02T10:53:24.562Z,1.63
2022-10-02T10:55:52.272Z,1.52
2022-10-02T10:58:21.376Z,1.33
2022-10-02T11:00:49.061Z,1.30
2022-10-02T11:03:16.825Z,1.73
2022-10-02T11:05:44.557Z,1.50
2022-10-02T11:08:12.836Z,1.50
2022-10-02T11:10:40.583Z,1.50
2022-10-02T11:13:09.013Z,1.73
2022-10-02T11:15:37.116Z,1.70
2022-10-02T11:18:05.613Z,1.38
2022-10-02T11:20:33.387Z,1.85
2022-10-02T11:23:01.095Z,1.80
2022-10-02T11:25:28.899Z,1.67
2022-10-02T11:27:57.682Z,1.67
2022-10-02T11:30:25.560Z,1.67
2022-10-02T11:32:54.374Z,1.77
2022-10-02T11:35:23.533Z,1.42
2022-10-02T11:37:51.560Z,1.75
2022-10-02T11:40:19.228Z,1.50
2022-10-02T11:42:47.759Z,1.73
2022-10-02T11:45:15.636Z,1.60
2022-10-02T11:47:46.975Z,1.60
2022-10-02T11:50:14.724Z,1.70
2022-10-02T11:52:47.339Z,1.50
2022-10-02T11:55:15.911Z,1.52
2022-10-02T11:57:45.967Z,1.60
2022-10-02T12:00:14.861Z,1.40
2022-10-02T12:02:42.824Z,1.13
2022-10-02T12:05:10.820Z,1.45
2022-10-02T12:07:38.478Z,1.15
2022-10-02T12:10:06.187Z,1.27
2022-10-02T12:12:33.848Z,1.25
2022-10-02T12:15:01.551Z,1.60
2022-10-02T12:17:29.310Z,1.30
2022-10-02T12:20:14.891Z,1.40
2022-10-02T12:23:00.228Z,1.30
2022-10-02T12:25:45.676Z,1.15
2022-10-02T12:28:13.406Z,1.30
2022-10-02T12:30:41.154Z,1.38
2022-10-02T12:33:08.861Z,1.40
2022-10-02T12:35:38.094Z,1.35
2022-10-02T12:38:05.818Z,1.40
2022-10-02T12:40:33.494Z,1.30
2022-10-02T12:43:01.449Z,1.30
2022-10-02T12:45:29.351Z,1.30
2022-10-02T12:47:57.289Z,1.33
2022-10-02T12:50:25.102Z,1.40
2022-10-02T12:52:53.236Z,1.40
2022-10-02T12:55:21.094Z,1.35
2022-10-02T12:57:56.009Z,1.20
2022-10-02T13:00:23.896Z,1.40
2022-10-02T13:03:02.287Z,1.60
2022-10-02T13:05:32.160Z,1.38
2022-10-02T13:07:59.896Z,1.45
2022-10-02T13:10:27.642Z,1.65
2022-10-02T13:12:55.643Z,1.40
2022-10-02T13:15:23.391Z,1.40
2022-10-02T13:17:51.212Z,1.60
2022-10-02T13:20:19.072Z,1.48
2022-10-02T13:22:46.757Z,1.35
2022-10-02T13:25:15.066Z,1.20
2022-10-02T13:27:43.045Z,1.30
2022-10-02T13:30:10.800Z,1.52
2022-10-02T13:32:38.525Z,1.42
2022-10-02T13:35:06.284Z,1.70
2022-10-02T13:37:34.255Z,1.40
2022-10-02T13:40:02.121Z,1.38
2022-10-02T13:42:29.963Z,1.30
2022-10-02T13:44:58.995Z,1.33
2022-10-02T13:47:26.696Z,1.10
2022-10-02T13:49:54.726Z,1.52
2022-10-02T13:52:22.594Z,1.02
2022-10-02T13:54:50.416Z,1.30
2022-10-02T13:57:18.431Z,1.50
2022-10-02T13:59:46.297Z,1.55
2022-10-02T14:02:14.212Z,1.40
2022-10-02T14:04:42.006Z,1.25
2022-10-02T14:07:09.894Z,1.40
2022-10-02T14:09:37.813Z,1.20
2022-10-02T14:12:05.765Z,1.30
2022-10-02T14:14:35.610Z,1.30
2022-10-02T14:17:03.375Z,1.50
2022-10-02T14:19:31.367Z,1.30
2022-10-02T14:21:59.267Z,1.50
2022-10-02T14:24:47.205Z,1.50
2022-10-02T14:27:15.003Z,1.30
2022-10-02T14:29:44.422Z,1.30
2022-10-02T14:32:12.388Z,1.60
2022-10-02T14:34:40.655Z,1.27
2022-10-02T14:37:08.439Z,1.40
2022-10-02T14:39:36.294Z,1.40
2022-10-02T14:42:04.405Z,1.17
2022-10-02T14:44:32.304Z,1.40
2022-10-02T14:47:01.175Z,1.40
2022-10-02T14:49:29.363Z,1.33
2022-10-02T14:51:57.090Z,1.50
2022-10-02T14:54:24.850Z,1.17
2022-10-02T14:56:53.310Z,1.25
2022-10-02T14:59:21.062Z,1.35
2022-10-02T15:01:48.954Z,1.20
2022-10-02T15:04:16.804Z,1.42
2022-10-02T15:06:44.534Z,1.20
2022-10-02T15:09:12.435Z,1.25
2022-10-02T15:11:40.579Z,1.08
2022-10-02T15:14:08.816Z,1.17
2022-10-02T15:16:54.165Z,1.42
2022-10-02T15:19:21.926Z,1.20
2022-10-02T15:21:51.852Z,1.27
2022-10-02T15:24:19.628Z,1.30
2022-10-02T15:26:47.924Z,1.42
2022-10-02T15:29:15.786Z,1.45
2022-10-02T15:31:44.346Z,1.27
2022-10-02T15:34:12.145Z,1.20
2022-10-02T15:36:39.808Z,1.20
2022-10-02T15:39:09.932Z,1.40
2022-10-02T15:41:41.156Z,1.00
2022-10-02T15:44:08.877Z,1.15
2022-10-02T15:46:37.600Z,1.38
2022-10-02T15:49:05.695Z,1.50
2022-10-02T15:51:33.418Z,1.33
2022-10-02T15:54:01.136Z,1.30
2022-10-02T15:56:29.165Z,1.30
2022-10-02T15:58:57.025Z,1.38
2022-10-02T16:01:25.429Z,1.30
2022-10-02T16:03:53.180Z,1.30
2022-10-02T16:06:20.972Z,1.50
2022-10-02T16:08:48.671Z,1.40
2022-10-02T16:11:16.588Z,1.20
2022-10-02T16:13:47.325Z,1.42
2022-10-02T16:16:15.337Z,1.40
2022-10-02T16:18:43.105Z,1.00
2022-10-02T16:21:12.759Z,1.30
2022-10-02T16:23:40.566Z,1.00
2022-10-02T16:26:08.447Z,1.10
2022-10-02T16:28:36.731Z,1.10
2022-10-02T16:31:04.455Z,1.05
2022-10-02T16:33:32.197Z,1.30
2022-10-02T16:36:00.627Z,1.00
2022-10-02T16:38:28.376Z,1.20
2022-10-02T16:40:56.883Z,1.10
2022-10-02T16:43:24.612Z,1.00
2022-10-02T16:45:52.574Z,0.93
2022-10-02T16:48:20.296Z,1.00
2022-10-02T16:50:48.179Z,1.20
2022-10-02T16:53:16.571Z,1.30
2022-10-02T16:55:44.371Z,1.20
2022-10-02T16:58:12.269Z,1.50
2022-10-02T17:00:39.945Z,1.58
2022-10-02T17:03:08.035Z,1.27
2022-10-02T17:05:35.740Z,1.20
2022-10-02T17:08:03.661Z,1.25
2022-10-02T17:10:31.506Z,1.40
2022-10-02T17:12:59.235Z,1.40
2022-10-02T17:15:27.080Z,1.40
2022-10-02T17:17:55.288Z,1.25
2022-10-02T17:20:22.947Z,1.35
2022-10-02T17:22:50.784Z,1.10
2022-10-02T17:25:18.559Z,1.27
2022-10-02T17:27:47.205Z,1.10
2022-10-02T17:30:15.091Z,1.45
2022-10-02T17:32:42.839Z,1.60
2022-10-02T17:35:10.596Z,1.30
2022-10-02T17:37:38.325Z,1.40
2022-10-02T17:40:06.209Z,1.10
2022-10-02T17:42:34.553Z,1.10
2022-10-02T17:45:02.539Z,1.20
2022-10-02T17:47:30.520Z,1.30
2022-10-02T17:49:59.164Z,1.42
2022-10-02T17:52:44.483Z,1.30
2022-10-02T17:55:29.697Z,1.40
2022-10-02T17:57:58.593Z,1.50
2022-10-02T18:00:27.719Z,1.45
2022-10-02T18:02:55.402Z,1.20
2022-10-02T18:05:23.049Z,1.23
2022-10-02T18:07:52.116Z,1.10
2022-10-02T18:10:19.883Z,1.33
2022-10-02T18:12:47.585Z,1.30
2022-10-02T18:15:15.541Z,1.48
2022-10-02T18:17:43.281Z,1.38
2022-10-02T18:20:11.391Z,1.20
2022-10-02T18:22:39.110Z,1.40
2022-10-02T18:25:11.892Z,1.13
2022-10-02T18:27:40.480Z,1.17
2022-10-02T18:30:08.938Z,1.42
2022-10-02T18:32:37.222Z,1.23
2022-10-02T18:35:05.028Z,1.42
2022-10-02T18:37:32.901Z,1.17
2022-10-02T18:40:06.150Z,1.30
2022-10-02T18:42:41.100Z,1.45
2022-10-02T18:45:08.957Z,1.30
2022-10-02T18:47:36.933Z,1.50
2022-10-02T18:50:05.639Z,1.15
2022-10-02T18:52:46.652Z,1.20
2022-10-02T18:55:15.266Z,1.25
2022-10-02T18:57:43.108Z,1.20
2022-10-02T19:00:11.344Z,1.10
2022-10-02T19:02:39.201Z,1.20
2022-10-02T19:05:06.986Z,1.27
2022-10-02T19:07:34.769Z,1.10
2022-10-02T19:10:02.616Z,1.27
2022-10-02T19:12:30.555Z,1.23
2022-10-02T19:14:58.557Z,1.20
2022-10-02T19:17:26.974Z,1.10
2022-10-02T19:19:56.238Z,1.00
2022-10-02T19:22:24.062Z,1.08
2022-10-02T19:24:51.928Z,1.20
2022-10-02T19:27:19.822Z,1.30
2022-10-02T19:29:48.704Z,1.13
2022-10-02T19:32:17.213Z,1.10
2022-10-02T19:34:45.051Z,1.20
2022-10-02T19:37:13.002Z,1.00
2022-10-02T19:39:41.375Z,1.10
2022-10-02T19:42:09.710Z,1.30
2022-10-02T19:44:37.796Z,1.30
2022-10-02T19:47:05.647Z,1.10
2022-10-02T19:49:34.308Z,1.40
2022-10-02T19:52:02.094Z,1.30
2022-10-02T19:54:30.065Z,1.15
2022-10-02T19:56:58.002Z,1.27
2022-10-02T19:59:25.864Z,1.20
2022-10-02T20:01:53.837Z,1.27
2022-10-02T20:04:21.808Z,1.40
2022-10-02T20:06:49.933Z,1.10
2022-10-02T20:09:17.695Z,1.15
2022-10-02T20:11:45.548Z,1.20
2022-10-02T20:14:13.737Z,1.20
2022-10-02T20:16:58.928Z,1.30
2022-10-02T20:19:26.772Z,1.20
2022-10-02T20:21:54.831Z,1.40
2022-10-02T20:24:22.702Z,1.40
2022-10-02T20:26:50.790Z,1.30
2022-10-02T20:29:18.674Z,1.30
2022-10-02T20:31:46.511Z,1.00
2022-10-02T20:34:15.445Z,1.13
2022-10-02T20:36:43.302Z,1.13
2022-10-02T20:39:11.333Z,1.08
2022-10-02T20:41:41.103Z,1.20
2022-10-02T20:44:09.313Z,1.30
2022-10-02T20:46:37.146Z,1.20
2022-10-02T20:49:09.481Z,1.45
2022-10-02T20:51:45.025Z,1.30
2022-10-02T20:54:15.117Z,1.23
2022-10-02T20:56:42.889Z,1.10
2022-10-02T20:59:10.827Z,1.10
2022-10-02T21:01:40.083Z,1.10
2022-10-02T21:04:08.164Z,1.25
2022-10-02T21:06:37.249Z,1.27
2022-10-02T21:09:05.507Z,1.20
2022-10-02T21:11:33.368Z,1.10
2022-10-02T21:14:01.345Z,1.20
2022-10-02T21:16:29.347Z,1.00
2022-10-02T21:19:03.785Z,1.20
2022-10-02T21:21:31.908Z,1.38
2022-10-02T21:23:59.764Z,1.20
2022-10-02T21:26:27.873Z,1.10
2022-10-02T21:28:56.138Z,1.10
2022-10-02T21:31:24.069Z,1.00
2022-10-02T21:33:51.960Z,1.20
2022-10-02T21:36:19.837Z,1.27
2022-10-02T21:38:47.672Z,1.10
2022-10-02T21:41:15.479Z,1.23
2022-10-02T21:43:43.300Z,1.10
2022-10-02T21:46:11.304Z,1.20
2022-10-02T21:48:39.359Z,1.40
2022-10-02T21:51:07.383Z,1.10
2022-10-02T21:53:35.155Z,1.30
2022-10-02T21:56:03.394Z,1.30
2022-10-02T21:58:31.168Z,1.20
2022-10-02T22:00:59.677Z,1.10
2022-10-02T22:03:35.361Z,1.23
2022-10-02T22:06:05.391Z,1.00
2022-10-02T22:08:33.901Z,1.10
2022-10-02T22:11:01.821Z,1.00
2022-10-02T22:13:30.198Z,1.10
2022-10-02T22:15:58.110Z,1.17
2022-10-02T22:18:26.239Z,1.20
2022-10-02T22:20:54.084Z,1.20
2022-10-02T22:23:21.967Z,1.20
2022-10-02T22:25:49.848Z,1.10
2022-10-02T22:28:17.725Z,1.10
2022-10-02T22:30:45.608Z,1.00
2022-10-02T22:33:13.215Z,1.30
2022-10-02T22:35:41.078Z,1.20
2022-10-02T22:38:09.255Z,1.20
2022-10-02T22:40:37.090Z,1.30
2022-10-02T22:43:05.265Z,1.10
2022-10-02T22:45:33.362Z,1.08
2022-10-02T22:48:01.379Z,1.20
2022-10-02T22:50:29.153Z,1.40
2022-10-02T22:52:57.107Z,1.40
2022-10-02T22:55:26.202Z,1.20
2022-10-02T22:57:54.234Z,1.10
2022-10-02T23:00:22.029Z,1.15
2022-10-02T23:02:50.572Z,1.10
2022-10-02T23:05:18.447Z,1.10
2022-10-02T23:07:46.218Z,1.17
2022-10-02T23:10:14.719Z,1.10
2022-10-02T23:12:42.594Z,1.27
2022-10-02T23:15:10.560Z,1.00
2022-10-02T23:17:38.329Z,1.13
2022-10-02T23:20:06.316Z,1.40
2022-10-02T23:22:34.267Z,1.30
2022-10-02T23:25:02.041Z,0.90
2022-10-02T23:27:32.774Z,1.25
2022-10-02T23:30:01.016Z,1.02
2022-10-02T23:32:29.487Z,1.30
2022-10-02T23:34:57.465Z,1.10
2022-10-02T23:37:25.254Z,1.08
2022-10-02T23:39:53.283Z,1.20
2022-10-02T23:42:21.082Z,1.10
2022-10-02T23:44:49.816Z,1.10
2022-10-02T23:47:17.673Z,1.02
2022-10-02T23:49:45.500Z,1.05
2022-10-02T23:52:13.477Z,1.00
2022-10-02T23:54:41.265Z,0.93
2022-10-02T23:57:09.142Z,1.30
2022-10-02T23:59:36.929Z,1.25
